Time;durP1;ratioP1;P1;durP2;ratioP2;P2;SDS_P1;SDS_P2;PMS_P1;PMS_P2;Temp;Humidity;BMP_temperature;BMP_pressure;BME280_temperature;BME280_humidity;BME280_pressure;Samples;Min_cycle;Max_cycle;Signal;HPM_P1;HPM_P2
2023/10/04 00:02:12;;;;;;;5.50;3.30;;;;;;;14.56;84.88;99055.55;225561;1281;138485;-75
2023/10/04 00:07:44;;;;;;;6.60;3.20;;;;;;;14.50;84.89;99074.84;225603;1281;138612;-76
2023/10/04 00:12:47;;;;;;;5.80;3.20;;;;;;;14.40;84.76;99095.73;225545;1281;138377;-76
2023/10/04 00:18:01;;;;;;;5.50;3.20;;;;;;;14.31;85.00;99127.11;225561;1278;138609;-75
2023/10/04 00:23:37;;;;;;;5.20;3.10;;;;;;;14.25;85.33;99158.96;225512;1281;138392;-75
2023/10/04 00:28:57;;;;;;;6.30;2.90;;;;;;;14.24;85.84;99215.11;225593;1275;138406;-76
2023/10/04 00:34:40;;;;;;;4.00;2.10;;;;;;;14.23;86.21;99230.73;225658;1281;22569;-73
2023/10/04 00:40:22;;;;;;;;;;;;;;;;;;;;;
2023/10/04 00:46:16;;;;;;;;;;;;;;;;;;;;;
2023/10/04 00:52:18;;;;;;;3.10;1.70;;;;;;;13.86;84.65;99231.23;225607;1281;138571;-73
2023/10/04 01:04:16;;;;;;;3.00;1.30;;;;;;;13.67;84.54;99268.45;225487;1281;139764;-74
2023/10/04 01:10:30;;;;;;;2.20;1.30;;;;;;;13.63;85.03;99272.60;225518;1281;22537;-74
2023/10/04 01:16:17;;;;;;;2.60;1.30;;;;;;;13.58;85.06;99292.99;225631;1281;24311;-73
2023/10/04 01:22:28;;;;;;;;;;;;;;;;;;;;;
2023/10/04 01:29:02;;;;;;;4.50;1.80;;;;;;;13.48;85.13;99322.26;225600;1271;22631;-74
2023/10/04 01:35:12;;;;;;;1.70;1.20;;;;;;;13.45;85.02;99334.60;225542;1281;23354;-74
2023/10/04 01:47:01;;;;;;;2.60;1.50;;;;;;;13.39;85.47;99359.33;225540;1280;22709;-73
2023/10/04 01:52:58;;;;;;;2.30;1.40;;;;;;;13.35;85.08;99377.19;225691;1281;22567;-72
2023/10/04 01:59:14;;;;;;;;;;;;;;;;;;;;;
2023/10/04 02:04:20;;;;;;;2.80;1.30;;;;;;;13.28;84.56;99407.26;225532;1281;138273;-73
2023/10/04 02:09:30;;;;;;;3.40;1.50;;;;;;;13.23;84.48;99404.47;225597;1271;138229;-72
2023/10/04 02:14:59;;;;;;;5.00;2.00;;;;;;;13.18;84.39;99409.58;225571;1281;138316;-73
2023/10/04 02:21:34;;;;;;;4.30;1.70;;;;;;;13.13;84.33;99418.63;225388;1282;138231;-73
2023/10/04 02:26:52;;;;;;;4.00;1.60;;;;;;;13.09;84.57;99425.89;225482;1282;138200;-73
2023/10/04 02:32:25;;;;;;;;;;;;;;;;;;;;;
2023/10/04 02:44:06;;;;;;;3.80;2.00;;;;;;;12.86;84.33;99435.11;225436;1282;138499;-73
2023/10/04 02:49:51;;;;;;;;;;;;;;;;;;;;;
2023/10/04 02:54:56;;;;;;;4.70;1.90;;;;;;;12.55;83.54;99437.02;225459;1282;138432;-74
2023/10/04 03:00:36;;;;;;;;;;;;;;;;;;;;;
2023/10/04 03:06:26;;;;;;;;;;;;;;;;;;;;;
2023/10/04 03:12:17;;;;;;;;;;;;;;;;;;;;;
2023/10/04 03:18:19;;;;;;;6.30;2.30;;;;;;;12.32;83.64;99469.52;225478;1281;138436;-74
2023/10/04 03:23:42;;;;;;;5.80;2.20;;;;;;;12.34;83.67;99472.94;225363;1283;138418;-73
2023/10/04 03:29:03;;;;;;;5.70;2.10;;;;;;;12.35;83.60;99485.21;225585;1283;22535;-74
2023/10/04 03:34:14;;;;;;;4.30;1.70;;;;;;;12.36;83.57;99496.36;225454;1275;138016;-74
2023/10/04 03:39:39;;;;;;;7.00;1.90;;;;;;;12.36;83.49;99498.52;225457;1283;138351;-74
2023/10/04 03:44:47;;;;;;;5.20;1.80;;;;;;;12.35;83.58;99510.08;225348;1283;138410;-73
2023/10/04 03:50:34;;;;;;;3.90;2.00;;;;;;;12.36;83.58;99519.85;225397;1283;138488;-73
2023/10/04 03:56:42;;;;;;;3.70;1.80;;;;;;;12.37;83.52;99527.36;225431;1283;138476;-73
2023/10/04 04:01:55;;;;;;;3.30;1.80;;;;;;;12.36;83.53;99541.98;225263;1283;138570;-73
2023/10/04 04:06:59;;;;;;;5.50;2.00;;;;;;;12.33;83.33;99554.13;225520;1281;138550;-73
2023/10/04 04:12:24;;;;;;;;;;;;;;;;;;;;;
2023/10/04 04:17:30;;;;;;;5.20;2.00;;;;;;;12.31;83.40;99596.34;225393;1283;138453;-73
2023/10/04 04:23:08;;;;;;;4.60;3.10;;;;;;;12.27;83.61;99592.81;225609;1281;22554;-73
2023/10/04 04:29:40;;;;;;;5.40;2.50;;;;;;;12.17;83.51;99586.52;225463;1265;22545;-74
2023/10/04 04:42:04;;;;;;;4.80;1.70;;;;;;;11.97;83.79;99594.90;224837;1277;22554;-73
2023/10/04 04:47:37;;;;;;;;;;;;;;;;;;;;;
2023/10/04 04:53:27;;;;;;;5.10;1.80;;;;;;;11.77;83.84;99612.23;224981;1287;22546;-74
2023/10/04 04:59:19;;;;;;;;;;;;;;;;;;;;;
2023/10/04 05:04:44;;;;;;;5.70;1.90;;;;;;;11.49;83.92;99623.20;225502;1281;22544;-73
2023/10/04 05:10:20;;;;;;;4.20;1.90;;;;;;;11.39;84.16;99629.80;225309;1283;139292;-74
2023/10/04 05:22:45;;;;;;;;;;;;;;;;;;;;;
2023/10/04 05:28:00;;;;;;;4.00;1.90;;;;;;;11.07;84.45;99664.10;225001;1285;139115;-73
2023/10/04 05:33:09;;;;;;;5.30;2.30;;;;;;;10.98;84.62;99665.11;224963;1285;138296;-73
2023/10/04 05:38:37;;;;;;;;;;;;;;;;;;;;;
2023/10/04 05:44:18;;;;;;;;;;;;;;;;;;;;;
2023/10/04 05:50:14;;;;;;;5.90;2.20;;;;;;;11.01;85.16;99662.84;224942;1279;138670;-72
2023/10/04 05:55:41;;;;;;;4.30;2.20;;;;;;;11.08;84.97;99664.03;225089;1265;138588;-74
2023/10/04 06:07:48;;;;;;;2.80;1.40;;;;;;;11.31;85.02;99675.70;224965;1269;138503;-80
2023/10/04 06:14:13;;;;;;;3.30;1.50;;;;;;;11.47;84.76;99679.01;224994;1272;138620;-75
2023/10/04 06:20:32;;;;;;;;;;;;;;;;;;;;;
2023/10/04 06:27:13;;;;;;;4.20;1.90;;;;;;;11.82;84.35;99678.66;224960;1276;138441;-74
2023/10/04 06:33:08;;;;;;;;;;;;;;;;;;;;;
2023/10/04 06:38:56;;;;;;;;;;;;;;;;;;;;;
2023/10/04 06:44:24;;;;;;;;;;;;;;;;;;;;;
2023/10/04 06:50:13;;;;;;;;;;;;;;;;;;;;;
2023/10/04 06:57:14;;;;;;;4.60;1.40;;;;;;;12.68;82.41;99700.64;224994;1271;138761;-75
2023/10/04 07:03:05;;;;;;;4.00;1.60;;;;;;;12.87;81.98;99706.38;224998;1275;139044;-76
2023/10/04 07:15:19;;;;;;;3.10;1.40;;;;;;;13.27;80.85;99716.11;224906;1279;138360;-76
2023/10/04 07:21:07;;;;;;;3.80;1.40;;;;;;;13.44;79.96;99719.10;224985;1276;138506;-76
2023/10/04 07:26:38;;;;;;;2.70;1.40;;;;;;;13.59;79.43;99730.17;225024;1272;138361;-75
2023/10/04 07:38:13;;;;;;;2.50;1.20;;;;;;;13.88;78.08;99729.35;225041;1266;138689;-75
2023/10/04 07:44:13;;;;;;;;;;;;;;;;;;;;;
2023/10/04 07:50:26;;;;;;;4.30;1.50;;;;;;;14.15;77.45;99741.40;225085;1275;138397;-74
2023/10/04 07:55:40;;;;;;;2.90;1.30;;;;;;;14.25;77.11;99748.35;225092;1279;138469;-75
2023/10/04 08:00:59;;;;;;;2.00;1.20;;;;;;;14.40;77.05;99752.13;225013;1281;139166;-74
2023/10/04 08:08:03;;;;;;;2.60;1.40;;;;;;;14.53;76.23;99755.30;224413;1284;138590;-74
2023/10/04 08:14:21;;;;;;;2.10;1.30;;;;;;;14.67;76.12;99749.83;224479;1288;138828;-73
2023/10/04 08:19:33;;;;;;;3.50;1.10;;;;;;;14.83;75.25;99751.17;224533;1283;138506;-75
2023/10/04 08:24:40;;;;;;;1.90;1.00;;;;;;;14.98;74.60;99760.17;225151;1282;138607;-75
2023/10/04 08:30:26;;;;;;;;;;;;;;;;;;;;;
2023/10/04 08:35:36;;;;;;;3.90;1.30;;;;;;;15.34;73.41;99767.50;225370;1281;23047;-76
2023/10/04 08:41:11;;;;;;;3.10;1.10;;;;;;;15.57;73.54;99763.48;225174;1263;22607;-75
2023/10/04 08:47:05;;;;;;;;;;;;;;;;;;;;;
2023/10/04 08:52:41;;;;;;;2.50;1.50;;;;;;;15.96;71.68;99759.11;225152;1280;137849;-76
2023/10/04 08:58:09;;;;;;;2.50;1.20;;;;;;;16.07;70.59;99749.48;224939;1283;137917;-76
2023/10/04 09:03:54;;;;;;;3.40;1.40;;;;;;;16.09;69.87;99750.88;225192;1264;137055;-76
2023/10/04 09:09:11;;;;;;;2.50;1.10;;;;;;;16.16;69.86;99750.45;225126;1280;138678;-76
2023/10/04 09:14:15;;;;;;;2.60;1.10;;;;;;;16.32;70.17;99749.35;225072;1280;138547;-74
2023/10/04 09:19:22;;;;;;;3.20;1.20;;;;;;;16.55;69.66;99747.98;224984;1276;137775;-74
2023/10/04 09:24:26;;;;;;;3.90;1.80;;;;;;;16.80;69.04;99747.95;225072;1280;138184;-74
2023/10/04 09:29:33;;;;;;;2.60;1.40;;;;;;;17.04;68.83;99746.59;225118;1280;24248;-74
2023/10/04 09:35:05;;;;;;;1.50;1.00;;;;;;;17.26;68.47;99747.31;225098;1280;137557;-73
2023/10/04 09:40:16;;;;;;;2.80;1.30;;;;;;;17.40;67.86;99743.84;225098;1277;137909;-73
2023/10/04 09:45:24;;;;;;;2.00;1.20;;;;;;;17.43;67.14;99737.71;224939;1282;137547;-73
2023/10/04 09:50:45;;;;;;;3.30;1.20;;;;;;;17.33;66.60;99733.67;224995;1267;138418;-74
2023/10/04 09:56:19;;;;;;;2.10;1.30;;;;;;;17.15;66.35;99725.14;225080;1277;137847;-75
2023/10/04 10:01:28;;;;;;;2.40;1.30;;;;;;;16.98;66.65;99724.66;224884;1276;138231;-73
2023/10/04 10:07:16;;;;;;;2.00;1.20;;;;;;;16.85;66.89;99724.63;224923;1277;137947;-74
2023/10/04 10:12:21;;;;;;;3.10;1.50;;;;;;;16.76;66.31;99731.77;224974;1283;138432;-73
2023/10/04 10:17:46;;;;;;;3.10;1.40;;;;;;;16.72;66.34;99744.32;225235;1264;22563;-75
2023/10/04 10:23:19;;;;;;;2.40;1.20;;;;;;;17.01;66.02;99742.77;225549;1275;22540;-73
2023/10/04 10:28:42;;;;;;;3.30;1.60;;;;;;;17.19;64.75;99750.25;225091;1281;137788;-74
2023/10/04 10:33:46;;;;;;;3.70;1.30;;;;;;;17.30;64.66;99747.31;225131;1276;137741;-76
2023/10/04 10:38:54;;;;;;;2.10;1.00;;;;;;;17.45;63.41;99743.17;225021;1281;137736;-73
2023/10/04 10:44:34;;;;;;;3.20;1.40;;;;;;;17.59;62.30;99742.45;224930;1268;137717;-79
2023/10/04 10:50:14;;;;;;;;;;;;;;;;;;;;;
2023/10/04 10:55:27;;;;;;;4.90;1.30;;;;;;;18.07;63.02;99731.07;225014;1259;137677;-71
2023/10/04 11:00:32;;;;;;;4.00;1.30;;;;;;;18.22;61.68;99731.83;224967;1276;137750;-73
2023/10/04 11:05:38;;;;;;;17.50;3.90;;;;;;;18.19;60.74;99727.80;225176;1275;22560;-72
2023/10/04 11:10:43;;;;;;;7.00;1.50;;;;;;;18.31;61.61;99731.40;224914;1271;137465;-75
2023/10/04 11:15:46;;;;;;;13.00;2.00;;;;;;;18.48;61.17;99723.64;224989;1276;137591;-73
2023/10/04 11:20:59;;;;;;;2.50;1.20;;;;;;;18.58;59.54;99724.70;224880;1276;138040;-72
2023/10/04 11:26:04;;;;;;;2.40;1.10;;;;;;;18.56;59.23;99724.81;224782;1277;137965;-74
2023/10/04 11:31:07;;;;;;;2.20;1.40;;;;;;;18.61;59.34;99730.86;224970;1275;137790;-70
2023/10/04 11:36:19;;;;;;;2.10;1.20;;;;;;;18.70;58.60;99735.84;224775;1275;137762;-70
2023/10/04 11:41:28;;;;;;;2.10;1.20;;;;;;;18.71;58.31;99737.11;224941;1267;22543;-72
2023/10/04 11:46:51;;;;;;;1.70;1.30;;;;;;;18.73;57.84;99742.36;224980;1275;137385;-70
2023/10/04 11:51:59;;;;;;;2.40;1.20;;;;;;;18.62;57.75;99738.40;224935;1282;137759;-70
2023/10/04 11:57:03;;;;;;;1.30;1.10;;;;;;;18.65;57.80;99731.42;224569;1280;138410;-72
2023/10/04 12:02:06;;;;;;;3.00;1.20;;;;;;;18.67;57.67;99727.66;224276;1261;137742;-73
2023/10/04 12:07:09;;;;;;;1.60;1.20;;;;;;;18.78;57.66;99721.02;224201;1268;138251;-74
2023/10/04 12:12:16;;;;;;;1.90;1.30;;;;;;;18.79;57.25;99722.89;224344;1277;137887;-73
2023/10/04 12:17:19;;;;;;;3.00;1.30;;;;;;;18.82;57.75;99719.65;224389;1274;24146;-73
2023/10/04 12:22:22;;;;;;;2.80;1.20;;;;;;;18.87;57.39;99721.15;224276;1268;137683;-72
2023/10/04 12:27:25;;;;;;;1.90;1.10;;;;;;;18.91;57.37;99723.85;224055;1267;138760;-73
2023/10/04 12:32:32;;;;;;;2.80;1.20;;;;;;;18.83;57.03;99724.66;224089;1275;137787;-75
2023/10/04 12:37:36;;;;;;;3.50;1.40;;;;;;;18.79;57.37;99726.67;224254;1265;137742;-76
2023/10/04 12:42:42;;;;;;;4.20;2.30;;;;;;;18.72;57.20;99726.18;224213;1277;138242;-74
2023/10/04 12:47:47;;;;;;;2.10;1.10;;;;;;;18.59;57.24;99732.15;224328;1267;22637;-76
2023/10/04 12:52:51;;;;;;;1.70;1.40;;;;;;;18.41;57.26;99737.11;227132;1268;22593;-76
2023/10/04 12:57:53;;;;;;;5.70;1.60;;;;;;;18.31;57.77;99731.11;227043;1275;138510;-75
2023/10/04 13:02:57;;;;;;;2.50;1.40;;;;;;;18.29;58.10;99734.57;227004;1280;137926;-77
2023/10/04 13:08:01;;;;;;;3.10;1.80;;;;;;;18.29;58.52;99730.41;227055;1279;137795;-77
2023/10/04 13:13:04;;;;;;;3.90;1.70;;;;;;;18.36;58.90;99728.21;227069;1267;138289;-77
2023/10/04 13:18:18;;;;;;;5.10;1.30;;;;;;;18.39;58.70;99718.61;227040;1274;137719;-76
2023/10/04 13:23:26;;;;;;;2.50;1.60;;;;;;;18.39;58.67;99710.00;227186;1278;22376;-77
2023/10/04 13:28:28;;;;;;;7.80;1.50;;;;;;;18.35;58.68;99714.84;225027;1270;138013;-76
2023/10/04 13:33:30;;;;;;;2.50;1.50;;;;;;;18.23;58.47;99720.54;224853;1278;137755;-77
2023/10/04 13:38:34;;;;;;;1.80;1.40;;;;;;;18.02;58.75;99708.76;224796;1281;137301;-75
2023/10/04 13:43:37;;;;;;;2.40;1.50;;;;;;;17.85;59.26;99704.71;224956;1282;156417;-78
2023/10/04 13:48:41;;;;;;;4.80;2.80;;;;;;;17.66;59.30;99696.31;225151;1281;137776;-72
2023/10/04 13:54:03;;;;;;;3.80;1.70;;;;;;;17.51;59.56;99707.48;225288;1264;22558;-77
2023/10/04 13:59:09;;;;;;;3.50;1.80;;;;;;;17.39;59.67;99708.25;225230;1278;22595;-77
2023/10/04 14:04:12;;;;;;;3.20;2.00;;;;;;;17.26;59.86;99707.78;225152;1279;137820;-77
2023/10/04 14:09:21;;;;;;;2.60;1.60;;;;;;;17.14;60.00;99704.60;225043;1281;137728;-77
2023/10/04 14:14:27;;;;;;;4.70;1.50;;;;;;;17.03;60.12;99712.95;225421;1281;138222;-75
2023/10/04 14:19:55;;;;;;;2.60;1.60;;;;;;;16.89;60.39;99716.36;225142;1274;137762;-74
2023/10/04 14:25:08;;;;;;;4.30;2.00;;;;;;;16.77;60.54;99716.45;225096;1277;137553;-75
2023/10/04 14:30:17;;;;;;;5.50;1.90;;;;;;;16.69;60.82;99719.98;225329;1280;137849;-75
2023/10/04 14:35:21;;;;;;;1.80;1.40;;;;;;;16.60;60.79;99722.12;225450;1281;22546;-75
2023/10/04 14:40:26;;;;;;;2.80;1.80;;;;;;;16.51;61.21;99719.30;225099;1271;137657;-75
2023/10/04 14:45:31;;;;;;;3.80;2.00;;;;;;;16.43;61.26;99719.21;225169;1282;137817;-75
2023/10/04 14:50:34;;;;;;;2.70;1.80;;;;;;;16.33;61.49;99717.84;225325;1276;137768;-75
2023/10/04 14:55:40;;;;;;;3.10;2.00;;;;;;;16.20;61.79;99709.27;225392;1280;137708;-75
2023/10/04 15:00:54;;;;;;;4.00;1.80;;;;;;;16.09;62.11;99705.84;225304;1270;137812;-74
2023/10/04 15:05:57;;;;;;;3.10;1.50;;;;;;;16.00;62.42;99696.23;225169;1282;137722;-76
2023/10/04 15:11:03;;;;;;;2.20;1.40;;;;;;;15.91;62.79;99700.61;225274;1282;22860;-77
2023/10/04 15:16:06;;;;;;;3.70;1.90;;;;;;;15.81;63.21;99710.98;225391;1277;137479;-77
2023/10/04 15:21:13;;;;;;;2.80;1.70;;;;;;;15.71;63.29;99710.45;225309;1281;138038;-77
2023/10/04 15:26:17;;;;;;;4.90;1.40;;;;;;;15.62;63.64;99707.98;225286;1282;137730;-76
2023/10/04 15:31:22;;;;;;;5.90;3.40;;;;;;;15.52;63.88;99711.16;225429;1278;137812;-76
2023/10/04 15:36:26;;;;;;;5.30;2.40;;;;;;;15.42;64.27;99715.89;225316;1281;137697;-76
2023/10/04 15:41:55;;;;;;;4.20;2.00;;;;;;;15.29;64.50;99714.66;225397;1259;22562;-76
2023/10/04 15:46:58;;;;;;;2.60;1.70;;;;;;;15.15;64.99;99714.40;225489;1281;22554;-75
2023/10/04 15:52:02;;;;;;;3.80;1.80;;;;;;;15.01;65.40;99714.51;225425;1275;138147;-76
2023/10/04 15:57:11;;;;;;;4.10;2.40;;;;;;;14.87;65.73;99714.70;225298;1282;139262;-76
2023/10/04 16:02:17;;;;;;;3.70;1.50;;;;;;;14.73;65.82;99712.36;225301;1282;138583;-75
2023/10/04 16:07:20;;;;;;;4.30;1.70;;;;;;;14.58;66.24;99705.06;225271;1282;138427;-75
2023/10/04 16:12:22;;;;;;;2.50;1.90;;;;;;;14.42;66.41;99710.27;225294;1283;138766;-75
2023/10/04 16:17:29;;;;;;;3.30;2.40;;;;;;;14.27;66.86;99711.90;225420;1282;22567;-75
2023/10/04 16:22:57;;;;;;;3.80;2.80;;;;;;;14.11;66.97;99717.94;225289;1282;138213;-75
2023/10/04 16:29:07;;;;;;;5.60;2.40;;;;;;;13.91;67.65;99726.83;225414;1282;138325;-76
2023/10/04 16:34:16;;;;;;;3.20;2.20;;;;;;;13.73;67.94;99721.50;225424;1274;138421;-75
2023/10/04 16:39:43;;;;;;;5.30;2.90;;;;;;;13.59;68.52;99721.55;225311;1277;138781;-76
2023/10/04 16:44:48;;;;;;;3.50;2.60;;;;;;;13.39;68.87;99724.72;225317;1280;138538;-75
2023/10/04 16:50:19;;;;;;;5.00;3.20;;;;;;;13.20;69.25;99727.55;225414;1282;138529;-75
2023/10/04 16:55:30;;;;;;;6.40;3.10;;;;;;;13.07;69.52;99733.44;225328;1278;138367;-75
2023/10/04 17:00:36;;;;;;;4.60;2.80;;;;;;;12.96;69.85;99734.27;225317;1271;138562;-76
2023/10/04 17:05:40;;;;;;;5.10;3.30;;;;;;;12.87;70.27;99734.66;225455;1277;22560;-74
2023/10/04 17:10:42;;;;;;;5.40;3.20;;;;;;;12.78;70.58;99730.06;225223;1281;138095;-75
2023/10/04 17:15:48;;;;;;;7.20;4.10;;;;;;;12.65;70.69;99730.26;225343;1282;138346;-75
2023/10/04 17:21:01;;;;;;;4.70;3.50;;;;;;;12.54;70.94;99729.89;225311;1283;138534;-75
2023/10/04 17:26:08;;;;;;;8.40;5.90;;;;;;;12.42;71.48;99729.88;225319;1283;138874;-75
2023/10/04 17:31:11;;;;;;;11.40;6.90;;;;;;;12.31;71.59;99728.62;225346;1278;138651;-74
2023/10/04 17:36:16;;;;;;;14.10;9.00;;;;;;;12.23;71.92;99727.05;225464;1280;138804;-75
2023/10/04 17:41:46;;;;;;;11.30;7.70;;;;;;;12.12;72.14;99730.46;225539;1283;24311;-74
2023/10/04 17:46:49;;;;;;;10.40;6.20;;;;;;;12.00;72.67;99743.60;225378;1277;138562;-76
2023/10/04 17:51:52;;;;;;;11.00;5.60;;;;;;;11.88;72.85;99749.81;225353;1281;139733;-74
2023/10/04 17:57:01;;;;;;;8.90;5.30;;;;;;;11.79;73.29;99761.27;225473;1282;138584;-74
2023/10/04 18:02:16;;;;;;;6.80;5.40;;;;;;;11.70;73.46;99755.68;225449;1274;138392;-74
2023/10/04 18:07:41;;;;;;;10.80;5.80;;;;;;;11.60;73.61;99759.59;225340;1283;138505;-74
2023/10/04 18:12:46;;;;;;;8.20;5.70;;;;;;;11.51;73.95;99762.59;225346;1282;138913;-75
2023/10/04 18:17:50;;;;;;;7.00;5.70;;;;;;;11.42;74.11;99764.96;225558;1263;22570;-74
2023/10/04 18:23:14;;;;;;;;;;;;;;;;;;;;;
2023/10/04 18:28:40;;;;;;;7.90;5.80;;;;;;;11.22;74.71;99770.73;225350;1282;138444;-74
2023/10/04 18:33:50;;;;;;;11.10;7.80;;;;;;;11.12;74.98;99774.43;225362;1283;138919;-74
2023/10/04 18:39:00;;;;;;;10.90;7.00;;;;;;;11.01;74.93;99777.25;225344;1283;138666;-76
2023/10/04 18:44:08;;;;;;;11.10;8.30;;;;;;;10.90;75.65;99773.81;225436;1278;138830;-74
2023/10/04 18:50:05;;;;;;;;;;;;;;;;;;;;;
2023/10/04 18:55:47;;;;;;;10.90;7.90;;;;;;;10.72;76.29;99772.26;225438;1282;138730;-75
2023/10/04 19:01:25;;;;;;;;;;;;;;;;;;;;;
2023/10/04 19:07:18;;;;;;;18.00;11.60;;;;;;;10.57;76.79;99770.89;225417;1282;139300;-75
2023/10/04 19:12:34;;;;;;;18.80;12.60;;;;;;;10.49;77.13;99779.34;225244;1283;138916;-74
2023/10/04 19:17:38;;;;;;;19.80;12.60;;;;;;;10.43;77.08;99781.41;225420;1282;24214;-74
2023/10/04 19:22:55;;;;;;;21.50;14.30;;;;;;;10.36;77.45;99778.93;225247;1283;138607;-75
2023/10/04 19:28:03;;;;;;;32.10;18.20;;;;;;;10.30;77.46;99786.06;225367;1282;139127;-74
2023/10/04 19:33:35;;;;;;;28.30;17.30;;;;;;;10.24;77.80;99787.44;225336;1282;138949;-74
2023/10/04 19:38:45;;;;;;;25.60;17.10;;;;;;;10.16;77.96;99792.45;225364;1282;138852;-75
2023/10/04 19:43:53;;;;;;;25.60;15.80;;;;;;;10.12;77.93;99795.91;225334;1282;138882;-74
2023/10/04 19:49:04;;;;;;;22.30;15.30;;;;;;;10.09;78.22;99795.48;225322;1283;139083;-74
2023/10/04 19:54:22;;;;;;;23.60;15.70;;;;;;;10.09;78.24;99793.93;225407;1282;139334;-75
2023/10/04 19:59:25;;;;;;;27.60;17.00;;;;;;;10.07;78.29;99791.13;225447;1283;22598;-75
2023/10/04 20:04:29;;;;;;;25.10;17.20;;;;;;;10.02;78.31;99788.29;225304;1283;138487;-74
2023/10/04 20:09:37;;;;;;;25.00;15.70;;;;;;;9.94;78.28;99788.46;225506;1281;138713;-74
2023/10/04 20:15:02;;;;;;;23.30;14.80;;;;;;;9.86;78.60;99788.55;225376;1282;138714;-74
2023/10/04 20:25:55;;;;;;;19.60;12.30;;;;;;;9.78;79.19;99780.55;224796;1287;139155;-74
2023/10/04 20:31:05;;;;;;;20.60;12.40;;;;;;;9.77;79.43;99781.61;224910;1285;138889;-74
2023/10/04 20:36:17;;;;;;;20.80;12.80;;;;;;;9.75;79.23;99775.82;224876;1287;138195;-74
2023/10/04 20:41:22;;;;;;;25.00;13.60;;;;;;;9.72;79.38;99783.35;225050;1287;22571;-74
2023/10/04 20:46:24;;;;;;;20.70;13.20;;;;;;;9.67;79.60;99785.33;224932;1284;138313;-74
2023/10/04 20:51:48;;;;;;;20.80;12.60;;;;;;;9.60;79.42;99779.11;225362;1283;138668;-74
2023/10/04 20:57:32;;;;;;;21.10;12.90;;;;;;;9.55;79.73;99782.45;225345;1283;138658;-74
2023/10/04 21:03:12;;;;;;;19.20;11.70;;;;;;;9.51;79.78;99787.79;225389;1283;138643;-74
2023/10/04 21:08:18;;;;;;;21.70;13.40;;;;;;;9.48;79.96;99788.95;225533;1275;138861;-74
2023/10/04 21:13:24;;;;;;;20.40;13.80;;;;;;;9.44;79.70;99783.93;225357;1265;138618;-75
2023/10/04 21:18:47;;;;;;;25.60;15.10;;;;;;;9.38;79.97;99776.43;225332;1283;138983;-74
2023/10/04 21:24:16;;;;;;;22.00;14.10;;;;;;;9.31;80.14;99781.91;225345;1283;138691;-75
2023/10/04 21:29:36;;;;;;;24.00;13.50;;;;;;;9.28;80.38;99786.77;225507;1283;22739;-74
2023/10/04 21:34:52;;;;;;;21.90;13.40;;;;;;;9.28;80.83;99786.44;225365;1283;138101;-75
2023/10/04 21:40:22;;;;;;;21.20;13.40;;;;;;;9.26;80.50;99784.70;225373;1283;138548;-75
2023/10/04 21:45:37;;;;;;;19.00;13.10;;;;;;;9.23;80.66;99777.62;225510;1281;138444;-74
2023/10/04 21:50:57;;;;;;;23.40;14.80;;;;;;;9.20;80.74;99769.34;225399;1283;138576;-74
2023/10/04 21:56:20;;;;;;;20.90;13.40;;;;;;;9.15;80.92;99761.40;225368;1283;138700;-74
2023/10/04 22:01:46;;;;;;;18.70;13.40;;;;;;;9.09;81.07;99762.70;225529;1283;138616;-73
2023/10/04 22:07:44;;;;;;;;;;;;;;;;;;;;;
2023/10/04 22:12:47;;;;;;;21.10;12.40;;;;;;;9.03;81.88;99757.54;225071;1285;138765;-74
2023/10/04 22:17:49;;;;;;;19.10;12.40;;;;;;;9.03;81.31;99757.14;225212;1282;24336;-73
2023/10/04 22:23:23;;;;;;;;;;;;;;;;;;;;;
2023/10/04 22:29:07;;;;;;;;;;;;;;;;;;;;;
2023/10/04 22:34:33;;;;;;;21.60;13.20;;;;;;;8.94;81.81;99738.21;225357;1283;138559;-74
2023/10/04 22:40:18;;;;;;;;;;;;;;;;;;;;;
2023/10/04 22:46:09;;;;;;;18.30;11.90;;;;;;;8.89;82.07;99729.98;225327;1283;138834;-73
2023/10/04 22:51:36;;;;;;;18.50;12.80;;;;;;;8.87;82.03;99721.94;224931;1286;138695;-74
2023/10/04 22:56:40;;;;;;;20.30;13.10;;;;;;;8.84;81.76;99716.60;225010;1287;138650;-74
2023/10/04 23:01:45;;;;;;;22.30;12.80;;;;;;;8.80;81.87;99712.55;224997;1277;138899;-73
2023/10/04 23:06:56;;;;;;;19.20;12.70;;;;;;;8.77;82.17;99703.04;225038;1287;138662;-74
2023/10/04 23:12:24;;;;;;;20.30;13.30;;;;;;;8.74;82.10;99698.13;225036;1287;138757;-74
2023/10/04 23:17:59;;;;;;;18.30;13.20;;;;;;;8.72;82.32;99701.66;225069;1286;23654;-74
2023/10/04 23:28:39;;;;;;;16.10;11.00;;;;;;;8.69;82.72;99700.13;225351;1283;138461;-76
2023/10/04 23:33:53;;;;;;;19.60;12.40;;;;;;;8.69;82.99;99696.70;225288;1283;138612;-74
2023/10/04 23:39:43;;;;;;;17.40;12.00;;;;;;;8.68;83.23;99696.43;225448;1279;139178;-74
2023/10/04 23:44:49;;;;;;;16.40;11.50;;;;;;;8.67;83.24;99691.77;225470;1281;138586;-73
2023/10/04 23:50:17;;;;;;;17.10;11.40;;;;;;;8.66;83.24;99689.45;225507;1283;138638;-74
2023/10/04 23:55:27;;;;;;;18.30;11.50;;;;;;;8.63;83.36;99686.90;225336;1283;138844;-74
